Terminal Aerodrome Forecast
Issued by NWS Sioux Falls, SD

Home | Current Version | Previous Version | Graphics & Text | Print | Product List | Glossary On
Versions: 1 2 3 4 5 6 7 8 9 10 11 12 13 14 15 16 17
000
FTUS43 KFSD 160913 AAA
TAFHON
TAF AMD
KHON 160913Z 1609/1706 15004KT 6SM -SHRA BR SCT007 OVC060
     FM161100 10008KT 5SM SHRA BR SCT020 OVC080
     FM161900 34010KT P6SM OVC025
     FM162300 35012KT P6SM BKN035
     FM170300 34007KT P6SM SCT080=

USA.gov is the U.S. government's official web portal to all federal, state and local government web resources and services.